createdAt,value
2023-01-11T00:01:55.152Z,97695.19
2023-01-11T00:04:23.317Z,97698.41
2023-01-11T00:06:50.559Z,97683.25
2023-01-11T00:09:17.389Z,97599.31
2023-01-11T00:11:44.005Z,97684.94
2023-01-11T00:14:10.565Z,97692.53
2023-01-11T00:16:37.601Z,97535.69
2023-01-11T00:19:04.255Z,97682.03
2023-01-11T00:21:31.288Z,97568.41
2023-01-11T00:23:57.881Z,97693.69
2023-01-11T00:26:24.804Z,97678.84
2023-01-11T00:28:52.543Z,97681.22
2023-01-11T00:31:19.319Z,97679.13
2023-01-11T00:33:46.003Z,97693.63
2023-01-11T00:36:13.037Z,97680.66
2023-01-11T00:38:55.356Z,97630.22
2023-01-11T00:41:42.657Z,97452.44
2023-01-11T00:44:29.343Z,97673.47
2023-01-11T00:47:15.000Z,97667.44
2023-01-11T00:49:41.996Z,97666.50
2023-01-11T00:52:09.730Z,97602.78
2023-01-11T00:54:37.944Z,97630.72
2023-01-11T00:57:07.176Z,97661.06
2023-01-11T00:59:34.970Z,97654.00
2023-01-11T01:02:02.103Z,97632.25
2023-01-11T01:04:28.752Z,97480.72
2023-01-11T01:06:55.418Z,97606.25
2023-01-11T01:09:22.308Z,97604.81
2023-01-11T01:11:49.069Z,97561.38
2023-01-11T01:14:30.885Z,97631.22
2023-01-11T01:17:02.306Z,97626.13
2023-01-11T01:19:30.099Z,97625.66
2023-01-11T01:21:58.350Z,97624.47
2023-01-11T01:24:25.789Z,97587.72
2023-01-11T01:26:52.387Z,97561.72
2023-01-11T01:29:19.110Z,97582.53
2023-01-11T01:31:45.768Z,97637.69
2023-01-11T01:34:12.613Z,97574.50
2023-01-11T01:36:39.612Z,97529.63
2023-01-11T01:39:07.245Z,97639.56
2023-01-11T01:41:35.103Z,97627.66
2023-01-11T01:44:04.161Z,97635.34
2023-01-11T01:46:33.429Z,97632.50
2023-01-11T01:49:06.028Z,97622.00
2023-01-11T01:51:39.479Z,97618.56
2023-01-11T01:54:14.314Z,97618.69
2023-01-11T01:56:50.661Z,97512.50
2023-01-11T01:59:19.691Z,97567.19
2023-01-11T02:01:47.684Z,97478.75
2023-01-11T02:04:18.748Z,97563.16
2023-01-11T02:06:45.586Z,97605.38
2023-01-11T02:09:23.332Z,97601.81
2023-01-11T02:11:51.223Z,97462.00
2023-01-11T02:14:20.429Z,97598.38
2023-01-11T02:16:46.993Z,97469.91
2023-01-11T02:19:29.170Z,97538.16
2023-01-11T02:22:04.747Z,97595.06
2023-01-11T02:24:55.170Z,97584.59
2023-01-11T02:27:44.105Z,97581.75
2023-01-11T02:30:22.638Z,97577.25
2023-01-11T02:33:07.910Z,97580.53
2023-01-11T02:36:01.019Z,97575.25
2023-01-11T02:38:37.844Z,97553.75
2023-01-11T02:41:10.531Z,97571.94
2023-01-11T02:44:16.491Z,97358.91
2023-01-11T02:46:55.226Z,97567.78
2023-01-11T02:49:27.807Z,97564.03
2023-01-11T02:52:02.619Z,97557.75
2023-01-11T02:54:29.724Z,97553.25
2023-01-11T02:57:00.158Z,97371.19
2023-01-11T02:59:32.910Z,97556.94
2023-01-11T03:01:59.656Z,97400.56
2023-01-11T03:04:33.999Z,97557.66
2023-01-11T03:07:55.606Z,97556.94
2023-01-11T03:10:40.316Z,97556.94
2023-01-11T03:13:18.973Z,97558.59
2023-01-11T03:16:33.409Z,97556.94
2023-01-11T03:19:19.514Z,97526.59
2023-01-11T03:22:02.254Z,97544.66
2023-01-11T03:24:47.044Z,97543.13
2023-01-11T03:27:47.426Z,97387.13
2023-01-11T03:30:16.906Z,97519.88
2023-01-11T03:33:02.312Z,97517.25
2023-01-11T03:35:47.906Z,97512.19
2023-01-11T03:38:24.938Z,97473.25
2023-01-11T03:40:59.301Z,97372.75
2023-01-11T03:43:28.852Z,97509.13
2023-01-11T03:46:19.770Z,97523.03
2023-01-11T03:48:51.934Z,97082.53
2023-01-11T03:51:24.991Z,97420.53
2023-01-11T03:53:52.794Z,97511.00
2023-01-11T03:56:23.369Z,97519.66
2023-01-11T03:58:50.003Z,97514.44
2023-01-11T04:01:16.951Z,97452.13
2023-01-11T04:03:43.524Z,97512.78
2023-01-11T04:06:11.898Z,97514.31
2023-01-11T04:08:38.535Z,97515.13
2023-01-11T04:11:05.262Z,97507.91
2023-01-11T04:13:33.939Z,97437.72
2023-01-11T04:16:00.840Z,97510.31
2023-01-11T04:18:27.888Z,97465.34
2023-01-11T04:20:54.513Z,97426.66
2023-01-11T04:23:21.101Z,97452.22
2023-01-11T04:25:47.666Z,97496.47
2023-01-11T04:28:14.255Z,97491.28
2023-01-11T04:30:40.785Z,97490.19
2023-01-11T04:33:07.412Z,97491.16
2023-01-11T04:35:34.023Z,97488.44
2023-01-11T04:38:00.642Z,97409.16
2023-01-11T04:40:27.740Z,97417.53
2023-01-11T04:42:54.314Z,97485.72
2023-01-11T04:45:21.349Z,97490.78
2023-01-11T04:47:54.720Z,97490.66
2023-01-11T04:50:21.308Z,97479.47
2023-01-11T04:52:47.875Z,97427.56
2023-01-11T04:55:14.465Z,97483.44
2023-01-11T04:57:41.084Z,97342.91
2023-01-11T05:00:10.741Z,97362.81
2023-01-11T05:02:39.551Z,97479.69
2023-01-11T05:05:07.492Z,97248.41
2023-01-11T05:07:34.393Z,97478.63
2023-01-11T05:10:01.071Z,97479.31
2023-01-11T05:12:27.729Z,97477.53
2023-01-11T05:14:54.567Z,97472.34
2023-01-11T05:17:21.173Z,97466.22
2023-01-11T05:19:47.765Z,97462.78
2023-01-11T05:22:14.368Z,97421.53
2023-01-11T05:24:40.944Z,97471.88
2023-01-11T05:27:07.570Z,97464.88
2023-01-11T05:29:34.165Z,97434.53
2023-01-11T05:32:00.796Z,97461.47
2023-01-11T05:34:27.491Z,97319.41
2023-01-11T05:36:54.053Z,97454.34
2023-01-11T05:39:22.971Z,97448.22
2023-01-11T05:41:49.592Z,97460.13
2023-01-11T05:44:34.985Z,97454.13
2023-01-11T05:47:01.565Z,97227.84
2023-01-11T05:49:28.169Z,97448.94
2023-01-11T05:51:54.828Z,97436.53
2023-01-11T05:54:21.583Z,97368.63
2023-01-11T05:56:48.075Z,97447.59
2023-01-11T05:59:14.728Z,97360.03
2023-01-11T06:01:41.608Z,97446.91
2023-01-11T06:04:08.619Z,97442.41
2023-01-11T06:06:35.446Z,97440.63
2023-01-11T06:09:02.065Z,97431.91
2023-01-11T06:11:28.708Z,97437.91
2023-01-11T06:13:55.318Z,97406.06
2023-01-11T06:16:23.587Z,97422.44
2023-01-11T06:18:52.088Z,97162.88
2023-01-11T06:21:19.356Z,97407.09
2023-01-11T06:23:50.572Z,97412.41
2023-01-11T06:26:19.891Z,97363.53
2023-01-11T06:28:46.995Z,97439.22
2023-01-11T06:31:16.153Z,97427.06
2023-01-11T06:33:43.844Z,97433.22
2023-01-11T06:36:12.111Z,97292.13
2023-01-11T06:38:38.728Z,97418.31
2023-01-11T06:41:08.355Z,97362.09
2023-01-11T06:43:36.926Z,97422.31
2023-01-11T06:46:03.760Z,97284.00
2023-01-11T06:48:30.819Z,97410.44
2023-01-11T06:50:58.535Z,97420.09
2023-01-11T06:53:28.641Z,97307.22
2023-01-11T06:55:57.887Z,97378.63
2023-01-11T06:58:25.791Z,97261.06
2023-01-11T07:00:53.939Z,97424.66
2023-01-11T07:03:23.867Z,97440.25
2023-01-11T07:05:51.391Z,97445.44
2023-01-11T07:08:18.356Z,97324.53
2023-01-11T07:10:45.539Z,97276.63
2023-01-11T07:13:12.402Z,97442.25
2023-01-11T07:15:39.167Z,97395.78
2023-01-11T07:18:05.962Z,97383.72
2023-01-11T07:20:32.611Z,97301.16
2023-01-11T07:23:00.356Z,97355.53
2023-01-11T07:25:28.294Z,97437.56
2023-01-11T07:28:00.206Z,97449.34
2023-01-11T07:30:31.053Z,97442.41
2023-01-11T07:32:59.071Z,97438.81
2023-01-11T07:35:28.088Z,97324.91
2023-01-11T07:37:55.525Z,97436.44
2023-01-11T07:40:22.197Z,97402.63
2023-01-11T07:43:10.980Z,97442.91
2023-01-11T07:45:45.941Z,97446.06
2023-01-11T07:48:14.324Z,97434.72
2023-01-11T07:50:44.546Z,97353.34
2023-01-11T07:53:12.159Z,97219.06
2023-01-11T07:55:39.709Z,97428.88
2023-01-11T07:58:11.381Z,97431.13
2023-01-11T08:00:38.261Z,97345.06
2023-01-11T08:03:04.961Z,97424.69
2023-01-11T08:05:31.780Z,97312.69
2023-01-11T08:07:58.691Z,97418.28
2023-01-11T08:10:25.312Z,97256.91
2023-01-11T08:13:11.364Z,97395.06
2023-01-11T08:15:43.921Z,97403.53
2023-01-11T08:18:12.016Z,97409.31
2023-01-11T08:20:40.038Z,97403.66
2023-01-11T08:23:09.468Z,97381.88
2023-01-11T08:25:36.541Z,97402.09
2023-01-11T08:28:05.517Z,97391.56
2023-01-11T08:30:32.264Z,97327.97
2023-01-11T08:33:01.041Z,97222.44
2023-01-11T08:35:28.053Z,97314.97
2023-01-11T08:37:54.673Z,97258.69
2023-01-11T08:40:23.862Z,97385.41
2023-01-11T08:42:57.447Z,97389.56
2023-01-11T08:45:24.804Z,97345.06
2023-01-11T08:47:52.008Z,97365.53
2023-01-11T08:50:20.167Z,97388.50
2023-01-11T08:52:47.876Z,97346.34
2023-01-11T08:55:14.593Z,97370.91
2023-01-11T08:57:41.231Z,97371.34
2023-01-11T09:00:08.762Z,97394.28
2023-01-11T09:02:35.394Z,97394.00
2023-01-11T09:05:02.215Z,97379.91
2023-01-11T09:07:29.151Z,97412.56
2023-01-11T09:09:55.752Z,97386.25
2023-01-11T09:12:22.308Z,97377.88
2023-01-11T09:14:48.984Z,97310.47
2023-01-11T09:17:15.578Z,97276.84
2023-01-11T09:19:42.156Z,97395.88
2023-01-11T09:22:08.706Z,97393.69
2023-01-11T09:24:35.293Z,97344.53
2023-01-11T09:27:02.037Z,97268.09
2023-01-11T09:29:28.745Z,97358.25
2023-01-11T09:31:55.404Z,97396.16
2023-01-11T09:34:22.163Z,97380.25
2023-01-11T09:36:48.966Z,97395.88
2023-01-11T09:39:18.661Z,97397.69
2023-01-11T09:41:49.469Z,97384.50
2023-01-11T09:44:22.814Z,97392.72
2023-01-11T09:46:56.732Z,97393.28
2023-01-11T09:49:31.713Z,97392.84
2023-01-11T09:52:13.140Z,97371.19
2023-01-11T09:54:40.288Z,97390.66
2023-01-11T09:57:26.658Z,97378.59
2023-01-11T10:00:31.690Z,97376.25
2023-01-11T10:03:24.182Z,97369.09
2023-01-11T10:06:13.020Z,97356.75
2023-01-11T10:18:23.318Z,97361.94
2023-01-11T10:18:57.995Z,97347.66
2023-01-11T10:21:31.753Z,97349.41
2023-01-11T10:24:12.533Z,97343.19
2023-01-11T10:26:42.264Z,97205.81
2023-01-11T10:29:17.523Z,97338.03
2023-01-11T10:32:02.574Z,97339.69
2023-01-11T10:34:54.354Z,97333.44
2023-01-11T10:37:43.612Z,97320.16
2023-01-11T10:40:30.543Z,97329.75
2023-01-11T10:43:09.039Z,97227.44
2023-01-11T10:45:51.684Z,97298.06
2023-01-11T10:48:29.471Z,97302.31
2023-01-11T10:51:03.696Z,97305.69
2023-01-11T10:53:51.459Z,97297.75
2023-01-11T10:56:33.262Z,97299.47
2023-01-11T10:59:09.044Z,97301.88
2023-01-11T11:02:00.922Z,97295.84
2023-01-11T11:04:36.016Z,97287.25
2023-01-11T11:07:14.713Z,97261.59
2023-01-11T11:09:58.354Z,97272.06
2023-01-11T11:12:34.933Z,97223.91
2023-01-11T11:15:23.613Z,97267.59
2023-01-11T11:17:54.014Z,97228.25
2023-01-11T11:20:23.402Z,97255.16
2023-01-11T11:22:51.802Z,97262.19
2023-01-11T11:25:27.345Z,97251.88
2023-01-11T11:28:05.126Z,97249.25
2023-01-11T11:30:37.835Z,97249.72
2023-01-11T11:33:24.481Z,97244.31
2023-01-11T11:36:14.731Z,97239.50
2023-01-11T11:39:05.369Z,97244.22
2023-01-11T11:41:47.241Z,97237.53
2023-01-11T11:44:24.319Z,97232.75
2023-01-11T11:46:57.930Z,97222.44
2023-01-11T11:49:25.233Z,97213.56
2023-01-11T11:51:52.911Z,97216.91
2023-01-11T11:54:22.614Z,97216.41
2023-01-11T11:56:49.650Z,97214.91
2023-01-11T11:59:20.302Z,97201.81
2023-01-11T12:02:03.216Z,97051.78
2023-01-11T12:04:44.636Z,97228.78
2023-01-11T12:07:16.060Z,97209.28
2023-01-11T12:10:05.676Z,97197.31
2023-01-11T12:12:34.232Z,97199.25
2023-01-11T12:15:16.105Z,97199.22
2023-01-11T12:17:43.207Z,97203.47
2023-01-11T12:20:22.019Z,97202.13
2023-01-11T12:23:18.445Z,97195.13
2023-01-11T12:26:04.611Z,97193.63
2023-01-11T12:29:02.024Z,97191.47
2023-01-11T12:31:47.433Z,97192.06
2023-01-11T12:34:51.927Z,97187.47
2023-01-11T12:37:39.324Z,97174.41
2023-01-11T12:40:08.029Z,97173.19
2023-01-11T12:42:49.879Z,97176.13
2023-01-11T12:45:21.657Z,97178.06
2023-01-11T12:48:35.846Z,97177.56
2023-01-11T12:51:13.828Z,97175.94
2023-01-11T12:54:04.929Z,97178.53
2023-01-11T12:56:53.104Z,97178.38
2023-01-11T13:00:00.173Z,97179.34
2023-01-11T13:03:00.879Z,97172.16
2023-01-11T13:05:41.944Z,97159.72
2023-01-11T13:08:23.927Z,97150.91
2023-01-11T13:11:35.182Z,97160.53
2023-01-11T13:14:10.658Z,97157.22
2023-01-11T13:16:50.973Z,97048.50
2023-01-11T13:19:37.513Z,97165.31
2023-01-11T13:22:11.068Z,97155.66
2023-01-11T13:24:40.039Z,97036.78
2023-01-11T13:27:14.607Z,97173.00
2023-01-11T13:29:45.596Z,97159.41
2023-01-11T13:32:15.782Z,97152.69
2023-01-11T13:34:49.322Z,97163.81
2023-01-11T13:37:25.929Z,97113.25
2023-01-11T13:40:08.217Z,97162.94
2023-01-11T13:42:42.458Z,97147.34
2023-01-11T13:45:35.862Z,97159.63
2023-01-11T13:48:14.147Z,97166.00
2023-01-11T13:51:04.516Z,97164.50
2023-01-11T13:54:00.435Z,97158.59
2023-01-11T13:56:41.754Z,97164.97
2023-01-11T13:59:26.613Z,97161.38
2023-01-11T14:02:02.584Z,97160.84
2023-01-11T14:04:51.611Z,97163.47
2023-01-11T14:08:00.580Z,97161.16
2023-01-11T14:10:38.386Z,97161.16
2023-01-11T14:13:10.684Z,97168.16
2023-01-11T14:16:06.391Z,97170.25
2023-01-11T14:18:36.921Z,97165.03
2023-01-11T14:21:25.975Z,97173.88
2023-01-11T14:23:54.979Z,97165.50
2023-01-11T14:26:46.507Z,97166.34
2023-01-11T14:29:16.210Z,97162.22
2023-01-11T14:32:08.058Z,97164.56
2023-01-11T14:34:56.891Z,97161.09
2023-01-11T14:37:45.553Z,97164.66
2023-01-11T14:40:26.102Z,97036.09
2023-01-11T14:43:01.753Z,97168.44
2023-01-11T14:45:31.407Z,97167.44
2023-01-11T14:48:03.958Z,97166.63
2023-01-11T14:51:07.657Z,97169.91
2023-01-11T14:53:42.493Z,97025.16
2023-01-11T14:56:35.520Z,97156.03
2023-01-11T14:59:06.167Z,97162.06
2023-01-11T15:02:06.753Z,97172.97
2023-01-11T15:04:51.860Z,97171.34
2023-01-11T15:07:24.283Z,97173.81
2023-01-11T15:09:55.646Z,97130.59
2023-01-11T15:12:23.320Z,97172.16
2023-01-11T15:15:02.749Z,97169.47
2023-01-11T15:17:49.287Z,97175.59
2023-01-11T15:20:18.457Z,97182.44
2023-01-11T15:22:46.428Z,97184.25
2023-01-11T15:25:26.788Z,97168.56
2023-01-11T15:27:54.733Z,97179.19
2023-01-11T15:30:30.228Z,97176.72
2023-01-11T15:33:18.610Z,97182.53
2023-01-11T15:35:57.505Z,97189.38
2023-01-11T15:38:32.815Z,97193.81
2023-01-11T15:41:22.183Z,97185.97
2023-01-11T15:43:59.645Z,97142.28
2023-01-11T15:46:53.624Z,97189.69
2023-01-11T15:49:23.176Z,97210.22
2023-01-11T15:52:01.091Z,97195.44
2023-01-11T15:54:34.223Z,97217.63
2023-01-11T15:57:30.047Z,97219.41
2023-01-11T16:00:16.828Z,97225.31
2023-01-11T16:03:08.585Z,97229.56
2023-01-11T16:05:39.397Z,97234.94
2023-01-11T16:08:05.927Z,97241.25
2023-01-11T16:10:45.488Z,97248.31
2023-01-11T16:13:26.820Z,97251.88
2023-01-11T16:16:15.110Z,97254.78
2023-01-11T16:18:53.125Z,97199.25
2023-01-11T16:21:29.306Z,97244.19
2023-01-11T16:23:56.265Z,97206.53
2023-01-11T16:26:23.222Z,97156.53
2023-01-11T16:28:56.867Z,97248.56
2023-01-11T16:31:24.074Z,97253.88
2023-01-11T16:33:52.358Z,97174.94
2023-01-11T16:36:23.713Z,97260.00
2023-01-11T16:39:04.988Z,97266.22
2023-01-11T16:41:57.635Z,97273.06
2023-01-11T16:44:27.093Z,97273.22
2023-01-11T16:47:14.004Z,97281.88
2023-01-11T16:49:43.213Z,97293.28
2023-01-11T16:52:28.198Z,96790.16
2023-01-11T16:54:57.398Z,97298.66
2023-01-11T16:57:34.537Z,97278.78
2023-01-11T17:00:04.441Z,97269.38
2023-01-11T17:02:37.852Z,97295.09
2023-01-11T17:05:22.047Z,97301.28
2023-01-11T17:07:49.894Z,97239.25
2023-01-11T17:10:24.585Z,97292.81
2023-01-11T17:13:35.616Z,97299.25
2023-01-11T17:16:16.027Z,97312.97
2023-01-11T17:18:44.116Z,97271.91
2023-01-11T17:21:25.887Z,97305.81
2023-01-11T17:23:57.991Z,97318.72
2023-01-11T17:26:28.184Z,97327.41
2023-01-11T17:28:57.497Z,97326.56
2023-01-11T17:31:29.556Z,97311.56
2023-01-11T17:34:19.081Z,97323.84
2023-01-11T17:36:46.626Z,97207.88
2023-01-11T17:39:32.455Z,97326.44
2023-01-11T17:42:23.814Z,97202.13
2023-01-11T17:45:11.152Z,97329.06
2023-01-11T17:47:39.947Z,97338.69
2023-01-11T17:50:17.503Z,97335.09
2023-01-11T17:52:54.523Z,97274.22
2023-01-11T17:55:24.138Z,97342.78
2023-01-11T17:58:09.523Z,97348.44
2023-01-11T18:00:36.530Z,97356.81
2023-01-11T18:03:10.555Z,97363.13
2023-01-11T18:05:37.613Z,97357.44
2023-01-11T18:08:09.559Z,97265.72
2023-01-11T18:10:40.035Z,97239.13
2023-01-11T18:13:19.509Z,97364.97
2023-01-11T18:15:46.812Z,97369.78
2023-01-11T18:18:41.595Z,97375.81
2023-01-11T18:21:26.588Z,97369.47
2023-01-11T18:24:11.471Z,97367.81
2023-01-11T18:26:47.312Z,97328.59
2023-01-11T18:29:39.909Z,97375.94
2023-01-11T18:32:10.446Z,97361.25
2023-01-11T18:34:37.019Z,97205.97
2023-01-11T18:37:07.468Z,97389.84
2023-01-11T18:39:34.601Z,97391.59
2023-01-11T18:42:08.611Z,97319.97
2023-01-11T18:44:36.096Z,97389.31
2023-01-11T18:47:11.233Z,97392.78
2023-01-11T18:49:37.870Z,97384.53
2023-01-11T18:52:05.155Z,97396.72
2023-01-11T18:54:31.708Z,97396.31
2023-01-11T18:56:58.276Z,97391.91
2023-01-11T18:59:24.927Z,97361.34
2023-01-11T19:02:01.513Z,97399.88
2023-01-11T19:04:38.387Z,97361.34
2023-01-11T19:07:04.975Z,97391.41
2023-01-11T19:09:31.548Z,97409.78
2023-01-11T19:11:58.118Z,97413.09
2023-01-11T19:14:24.715Z,97278.16
2023-01-11T19:16:51.266Z,97408.53
2023-01-11T19:19:17.831Z,97412.00
2023-01-11T19:21:44.509Z,97293.09
2023-01-11T19:24:11.085Z,97424.50
2023-01-11T19:26:37.733Z,97291.22
2023-01-11T19:29:04.390Z,97438.69
2023-01-11T19:31:31.002Z,97397.00
2023-01-11T19:33:57.552Z,97441.28
2023-01-11T19:36:24.339Z,97448.97
2023-01-11T19:38:51.712Z,97342.38
2023-01-11T19:41:18.297Z,97453.13
2023-01-11T19:43:45.041Z,97461.50
2023-01-11T19:46:15.041Z,97464.50
2023-01-11T19:48:43.740Z,97329.34
2023-01-11T19:51:12.337Z,97415.28
2023-01-11T19:53:38.961Z,97476.97
2023-01-11T19:56:08.261Z,97474.25
2023-01-11T19:58:38.012Z,97438.53
2023-01-11T20:01:12.650Z,97463.78
2023-01-11T20:03:42.655Z,97471.63
2023-01-11T20:06:09.755Z,97476.19
2023-01-11T20:08:38.476Z,97467.56
2023-01-11T20:11:07.485Z,97486.09
2023-01-11T20:13:34.542Z,97490.63
2023-01-11T20:16:09.466Z,97492.41
2023-01-11T20:18:36.157Z,97494.22
2023-01-11T20:21:03.472Z,97500.81
2023-01-11T20:23:31.549Z,97495.44
2023-01-11T20:25:59.697Z,97492.81
2023-01-11T20:28:26.580Z,97424.63
2023-01-11T20:30:54.000Z,97507.53
2023-01-11T20:33:20.686Z,97407.59
2023-01-11T20:35:48.730Z,97503.41
2023-01-11T20:38:15.366Z,97506.16
2023-01-11T20:40:42.299Z,97513.06
2023-01-11T20:43:11.036Z,97530.38
2023-01-11T20:45:39.583Z,97535.47
2023-01-11T20:48:07.214Z,97530.91
2023-01-11T20:50:34.778Z,97499.06
2023-01-11T20:53:01.963Z,97537.38
2023-01-11T20:55:28.845Z,97434.81
2023-01-11T20:57:55.503Z,97519.34
2023-01-11T21:00:22.277Z,97541.88
2023-01-11T21:02:49.708Z,97542.56
2023-01-11T21:05:16.778Z,97536.34
2023-01-11T21:07:43.632Z,97543.25
2023-01-11T21:10:10.826Z,97546.41
2023-01-11T21:15:03.247Z,97536.63
2023-01-11T21:17:29.897Z,97540.34
2023-01-11T21:19:56.488Z,97543.78
2023-01-11T21:22:23.125Z,97550.13
2023-01-11T21:24:49.703Z,97542.56
2023-01-11T21:27:16.334Z,97409.28
2023-01-11T21:29:42.967Z,97558.84
2023-01-11T21:32:09.792Z,97558.94
2023-01-11T21:34:36.403Z,97573.84
2023-01-11T21:37:02.982Z,97563.53
2023-01-11T21:39:29.563Z,97560.78
2023-01-11T21:41:56.275Z,97566.69
2023-01-11T21:44:27.555Z,97579.59
2023-01-11T21:46:54.188Z,97394.34
2023-01-11T21:49:22.444Z,97491.03
2023-01-11T21:51:49.040Z,97589.09
2023-01-11T21:54:19.666Z,97584.97
2023-01-11T21:56:47.546Z,97592.69
2023-01-11T21:59:14.976Z,97599.16
2023-01-11T22:01:45.381Z,97544.66
2023-01-11T22:04:14.691Z,97602.88
2023-01-11T22:06:43.431Z,97547.50
2023-01-11T22:09:11.733Z,97617.19
2023-01-11T22:11:39.083Z,97614.72
2023-01-11T22:14:08.413Z,97529.94
2023-01-11T22:16:36.501Z,97616.34
2023-01-11T22:19:06.000Z,97618.97
2023-01-11T22:21:32.750Z,97620.75
2023-01-11T22:23:59.753Z,97633.97
2023-01-11T22:26:27.867Z,97635.91
2023-01-11T22:29:13.689Z,97622.72
2023-01-11T22:31:51.291Z,97627.78
2023-01-11T22:34:19.008Z,97626.41
2023-01-11T22:36:45.701Z,97622.41
2023-01-11T22:39:14.162Z,97468.94
2023-01-11T22:41:40.826Z,97622.88
2023-01-11T22:44:09.342Z,97521.97
2023-01-11T22:46:35.906Z,97631.66
2023-01-11T22:49:03.173Z,97637.84
2023-01-11T22:51:29.768Z,97634.16
2023-01-11T22:53:56.609Z,97552.06
2023-01-11T22:56:25.778Z,97620.22
2023-01-11T22:58:56.848Z,97629.59
2023-01-11T23:01:28.951Z,97639.88
2023-01-11T23:03:57.314Z,97633.00
2023-01-11T23:06:34.285Z,97647.34
2023-01-11T23:09:00.923Z,97604.53
2023-01-11T23:11:48.748Z,97650.22
2023-01-11T23:14:18.771Z,97655.31
2023-01-11T23:16:47.296Z,97590.91
2023-01-11T23:19:16.692Z,97626.00
2023-01-11T23:21:44.828Z,97658.75
2023-01-11T23:24:13.325Z,97661.78
2023-01-11T23:26:40.276Z,97618.84
2023-01-11T23:29:07.352Z,97659.84
2023-01-11T23:31:33.961Z,97647.63
2023-01-11T23:34:02.234Z,97656.81
2023-01-11T23:36:31.712Z,97637.72
2023-01-11T23:38:58.543Z,97662.47
2023-01-11T23:41:44.366Z,97650.34
2023-01-11T23:44:13.643Z,97641.66
2023-01-11T23:46:59.804Z,97636.69
2023-01-11T23:49:27.228Z,97641.13
2023-01-11T23:51:54.847Z,97650.03
2023-01-11T23:54:22.299Z,97641.63
2023-01-11T23:56:49.147Z,97634.19
2023-01-11T23:59:15.767Z,97598.56
